createdAt,value
2023-01-03T00:00:02.081Z,100703.41
2023-01-03T00:05:04.117Z,100712.06
2023-01-03T00:10:09.101Z,100713.84
2023-01-03T00:15:11.260Z,100715.72
2023-01-03T00:20:13.265Z,100713.16
2023-01-03T00:25:15.394Z,100723.00
2023-01-03T00:30:17.136Z,100725.69
2023-01-03T00:35:18.765Z,100724.16
2023-01-03T00:40:20.404Z,100726.06
2023-01-03T00:45:25.445Z,100735.81
2023-01-03T00:50:27.518Z,100739.44
2023-01-03T00:55:29.169Z,100752.66
2023-01-03T01:00:30.827Z,100757.91
2023-01-03T01:05:32.523Z,100765.00
2023-01-03T01:10:34.301Z,100773.84
2023-01-03T01:15:36.000Z,100787.06
2023-01-03T01:20:39.764Z,100788.63
2023-01-03T01:25:41.398Z,100797.47
2023-01-03T01:30:43.108Z,100808.06
2023-01-03T01:35:44.806Z,100816.81
2023-01-03T01:40:46.785Z,100820.25
2023-01-03T01:45:48.655Z,100824.59
2023-01-03T01:50:54.786Z,100843.06
2023-01-03T01:56:03.546Z,100849.94
2023-01-03T02:01:09.149Z,100848.09
2023-01-03T02:06:14.326Z,100845.59
2023-01-03T02:11:47.996Z,100850.88
2023-01-03T02:17:11.849Z,100857.09
2023-01-03T02:22:47.511Z,100856.34
2023-01-03T02:27:58.203Z,100861.53
2023-01-03T02:33:20.867Z,100866.03
2023-01-03T02:38:31.527Z,100866.19
2023-01-03T02:43:42.629Z,100871.31
2023-01-03T02:48:55.390Z,100871.47
2023-01-03T02:53:59.731Z,100872.25
2023-01-03T02:59:08.704Z,100863.38
2023-01-03T03:04:12.220Z,100871.22
2023-01-03T03:09:13.953Z,100873.00
2023-01-03T03:14:28.771Z,100879.03
2023-01-03T03:19:52.088Z,100873.72
2023-01-03T03:24:57.082Z,100879.88
2023-01-03T03:30:02.740Z,100878.28
2023-01-03T03:35:09.241Z,100874.81
2023-01-03T03:40:30.125Z,100887.09
2023-01-03T03:45:41.651Z,100886.97
2023-01-03T03:50:54.006Z,100891.31
2023-01-03T03:56:07.411Z,100901.94
2023-01-03T04:01:12.477Z,100905.31
2023-01-03T04:06:31.005Z,100905.34
2023-01-03T04:11:32.750Z,100913.19
2023-01-03T04:16:34.509Z,100920.13
2023-01-03T04:21:36.755Z,100921.84
2023-01-03T04:26:38.462Z,100922.75
2023-01-03T04:31:40.616Z,100930.56
2023-01-03T04:36:42.251Z,100937.59
2023-01-03T04:41:43.879Z,100949.81
2023-01-03T04:46:52.301Z,100954.13
2023-01-03T04:51:54.563Z,100954.13
2023-01-03T04:56:56.206Z,100967.22
2023-01-03T05:01:58.050Z,100967.13
2023-01-03T05:06:59.877Z,100970.66
2023-01-03T05:12:01.582Z,100972.31
2023-01-03T05:17:03.295Z,100971.44
2023-01-03T05:22:23.708Z,100983.75
2023-01-03T05:27:25.376Z,100986.44
2023-01-03T05:32:29.105Z,100992.53
2023-01-03T05:37:30.705Z,101000.44
2023-01-03T05:42:32.395Z,101004.75
2023-01-03T05:47:34.017Z,101009.16
2023-01-03T05:52:35.775Z,101003.88
2023-01-03T05:57:37.561Z,101013.50
2023-01-03T06:02:39.402Z,101017.91
2023-01-03T06:07:41.060Z,101017.84
2023-01-03T06:12:42.703Z,101014.34
2023-01-03T06:17:58.227Z,101021.31
2023-01-03T06:23:00.026Z,101028.38
2023-01-03T06:28:01.782Z,101031.00
2023-01-03T06:33:03.406Z,101031.00
2023-01-03T06:38:05.114Z,101039.78
2023-01-03T06:43:06.812Z,101044.97
2023-01-03T06:48:28.486Z,101043.25
2023-01-03T06:53:36.671Z,101048.44
2023-01-03T06:58:38.595Z,101056.34
2023-01-03T07:03:40.541Z,101056.31
2023-01-03T07:08:47.862Z,101054.56
2023-01-03T07:13:59.824Z,101065.06
2023-01-03T07:19:02.347Z,101072.09
2023-01-03T07:24:05.800Z,101071.28
2023-01-03T07:29:09.555Z,101074.84
2023-01-03T07:34:11.229Z,101073.88
2023-01-03T07:39:12.833Z,101076.63
2023-01-03T07:44:14.443Z,101086.19
2023-01-03T07:49:16.104Z,101090.59
2023-01-03T07:54:17.759Z,101101.09
2023-01-03T07:59:19.518Z,101102.91
2023-01-03T08:04:21.239Z,101107.25
2023-01-03T08:09:41.455Z,101115.97
2023-01-03T08:14:43.077Z,101116.88
2023-01-03T08:19:45.948Z,101132.53
2023-01-03T08:24:47.866Z,101137.75
2023-01-03T08:29:49.579Z,101128.16
2023-01-03T08:34:51.504Z,101131.66
2023-01-03T08:40:01.528Z,101128.16
2023-01-03T08:45:09.277Z,101139.50
2023-01-03T08:50:12.741Z,101139.50
2023-01-03T08:55:14.595Z,101140.34
2023-01-03T09:00:16.439Z,101144.66
2023-01-03T09:05:18.219Z,101158.66
2023-01-03T09:10:20.027Z,101154.28
2023-01-03T09:15:22.669Z,101159.47
2023-01-03T09:20:24.384Z,101157.72
2023-01-03T09:25:25.949Z,101161.22
2023-01-03T09:30:27.638Z,101164.72
2023-01-03T09:35:29.294Z,101170.78
2023-01-03T09:40:36.196Z,101184.75
2023-01-03T09:45:39.824Z,101183.00
2023-01-03T09:51:14.973Z,101194.34
2023-01-03T09:56:25.080Z,101181.25
2023-01-03T10:01:51.747Z,101187.31
2023-01-03T10:07:23.603Z,101177.81
2023-01-03T10:12:43.793Z,101183.81
2023-01-03T10:18:17.653Z,101184.66
2023-01-03T10:23:19.550Z,101189.91
2023-01-03T10:28:27.411Z,101191.63
2023-01-03T10:33:42.685Z,101179.41
2023-01-03T10:38:51.571Z,101174.06
2023-01-03T10:44:00.154Z,101170.53
2023-01-03T10:49:28.854Z,101176.63
2023-01-03T10:54:46.533Z,101172.28
2023-01-03T10:59:51.249Z,101169.53
2023-01-03T11:05:13.288Z,101164.22
2023-01-03T11:10:19.077Z,101160.56
2023-01-03T11:15:38.273Z,101162.19
2023-01-03T11:21:01.647Z,101160.88
2023-01-03T11:26:33.780Z,101143.63
2023-01-03T11:31:51.258Z,101141.94
2023-01-03T11:37:00.596Z,101141.81
2023-01-03T11:42:25.826Z,101138.72
2023-01-03T11:47:27.355Z,101141.88
2023-01-03T11:52:29.520Z,101139.56
2023-01-03T11:57:46.915Z,101134.06
2023-01-03T12:03:26.281Z,101140.84
2023-01-03T12:09:13.075Z,101139.38
2023-01-03T12:14:24.086Z,101138.75
2023-01-03T12:19:28.627Z,101134.84
2023-01-03T12:24:42.843Z,101140.34
2023-01-03T12:29:49.136Z,101139.41
2023-01-03T12:35:00.802Z,101137.06
2023-01-03T12:40:14.756Z,101127.47
2023-01-03T12:45:44.918Z,101131.00
2023-01-03T12:50:52.087Z,101128.09
2023-01-03T12:55:53.534Z,101117.56
2023-01-03T13:01:05.041Z,101112.09
2023-01-03T13:06:13.959Z,101115.56
2023-01-03T13:11:28.925Z,101110.63
2023-01-03T13:16:36.627Z,101108.16
2023-01-03T13:21:53.430Z,101114.34
2023-01-03T13:27:20.465Z,101108.41
2023-01-03T13:32:22.035Z,101106.50
2023-01-03T13:37:46.396Z,101108.22
2023-01-03T13:42:49.359Z,101113.41
2023-01-03T13:47:53.932Z,101108.38
2023-01-03T13:53:04.045Z,101101.28
2023-01-03T13:58:24.227Z,101118.00
2023-01-03T14:03:59.938Z,101119.00
2023-01-03T14:09:24.381Z,101121.59
2023-01-03T14:14:30.755Z,101123.28
2023-01-03T14:19:35.724Z,101132.13
2023-01-03T14:24:51.714Z,101130.34
2023-01-03T14:29:55.394Z,101137.44
2023-01-03T14:34:57.089Z,101138.31
2023-01-03T14:40:19.711Z,101140.09
2023-01-03T14:45:21.517Z,101139.25
2023-01-03T14:50:27.826Z,101140.13
2023-01-03T14:55:32.867Z,101135.06
2023-01-03T15:00:36.407Z,101148.97
2023-01-03T15:05:40.688Z,101155.16
2023-01-03T15:10:51.325Z,101156.94
2023-01-03T15:15:58.899Z,101160.44
2023-01-03T15:21:03.206Z,101169.19
2023-01-03T15:26:19.620Z,101170.88
2023-01-03T15:31:24.150Z,101170.06
2023-01-03T15:36:29.059Z,101172.66
2023-01-03T15:42:43.051Z,101172.66
2023-01-03T15:47:34.636Z,101174.41
2023-01-03T15:52:36.609Z,101184.00
2023-01-03T15:57:38.683Z,101196.25
2023-01-03T16:02:40.717Z,101188.38
2023-01-03T16:07:42.549Z,101193.59
2023-01-03T16:12:44.434Z,101193.63
2023-01-03T16:17:46.471Z,101194.44
2023-01-03T16:23:01.675Z,101202.28
2023-01-03T16:28:10.189Z,101199.66
2023-01-03T16:33:19.981Z,101201.34
2023-01-03T16:38:25.418Z,101197.84
2023-01-03T16:43:27.500Z,101203.97
2023-01-03T16:48:38.089Z,101197.03
2023-01-03T16:53:41.046Z,101193.50
2023-01-03T16:58:43.415Z,101204.00
2023-01-03T17:03:45.300Z,101207.50
2023-01-03T17:08:47.229Z,101207.50
2023-01-03T17:13:49.253Z,101199.63
2023-01-03T17:18:53.411Z,101192.56
2023-01-03T17:24:01.873Z,101203.00
2023-01-03T17:29:06.012Z,101202.22
2023-01-03T17:34:22.619Z,101211.72
2023-01-03T17:39:26.053Z,101212.53
2023-01-03T17:44:27.701Z,101220.44
2023-01-03T17:49:29.385Z,101225.59
2023-01-03T17:54:36.239Z,101233.31
2023-01-03T17:59:37.922Z,101228.97
2023-01-03T18:05:13.272Z,101235.09
2023-01-03T18:10:01.625Z,101240.28
2023-01-03T18:15:03.736Z,101235.13
2023-01-03T18:20:06.503Z,101231.63
2023-01-03T18:25:23.560Z,101230.81
2023-01-03T18:30:25.198Z,101236.91
2023-01-03T18:35:33.897Z,101234.31
2023-01-03T18:40:39.574Z,101236.03
2023-01-03T18:45:42.012Z,101239.47
2023-01-03T18:50:45.583Z,101244.63
2023-01-03T18:55:48.513Z,101247.25
2023-01-03T19:00:50.199Z,101244.59
2023-01-03T19:05:55.201Z,101244.53
2023-01-03T19:11:06.124Z,101246.13
2023-01-03T19:16:07.952Z,101239.19
2023-01-03T19:21:13.187Z,101240.91
2023-01-03T19:26:29.029Z,101230.50
2023-01-03T19:31:42.579Z,101233.03
2023-01-03T19:36:45.376Z,101227.75
2023-01-03T19:42:16.734Z,101230.25
2023-01-03T19:47:20.593Z,101226.88
2023-01-03T19:52:22.386Z,101221.72
2023-01-03T19:57:30.182Z,101225.25
2023-01-03T20:02:40.944Z,101209.63
2023-01-03T20:07:43.857Z,101211.41
2023-01-03T20:12:46.732Z,101217.59
2023-01-03T20:17:48.601Z,101222.88
2023-01-03T20:23:06.327Z,101223.78
2023-01-03T20:28:16.884Z,101221.09
2023-01-03T20:33:18.555Z,101214.00
2023-01-03T20:38:27.372Z,101207.88
2023-01-03T20:43:29.292Z,101209.59
2023-01-03T20:48:31.078Z,101207.97
2023-01-03T20:53:32.723Z,101203.84
2023-01-03T20:58:34.370Z,101200.41
2023-01-03T21:03:37.966Z,101196.88
2023-01-03T21:08:54.661Z,101188.97
2023-01-03T21:13:58.477Z,101191.66
2023-01-03T21:19:16.238Z,101189.06
2023-01-03T21:24:20.216Z,101187.38
2023-01-03T21:29:22.116Z,101183.06
2023-01-03T21:34:23.863Z,101177.81
2023-01-03T21:39:25.720Z,101175.16
2023-01-03T21:44:27.430Z,101179.50
2023-01-03T21:49:29.267Z,101179.50
2023-01-03T21:54:30.897Z,101172.44
2023-01-03T21:59:32.645Z,101161.84
2023-01-03T22:04:34.645Z,101166.06
2023-01-03T22:09:55.011Z,101169.53
2023-01-03T22:14:56.827Z,101166.09
2023-01-03T22:19:58.497Z,101166.13
2023-01-03T22:25:00.129Z,101160.03
2023-01-03T22:30:03.188Z,101154.88
2023-01-03T22:35:05.109Z,101157.50
2023-01-03T22:40:08.969Z,101161.03
2023-01-03T22:45:10.915Z,101155.00
2023-01-03T22:50:12.654Z,101154.13
2023-01-03T22:55:14.336Z,101153.22
2023-01-03T23:00:16.187Z,101150.59
2023-01-03T23:05:18.066Z,101153.94
2023-01-03T23:10:19.762Z,101141.66
2023-01-03T23:15:21.529Z,101142.31
2023-01-03T23:20:29.923Z,101142.06
2023-01-03T23:25:33.324Z,101130.78
2023-01-03T23:30:36.034Z,101131.66
2023-01-03T23:35:39.034Z,101132.59
2023-01-03T23:40:42.017Z,101126.38
2023-01-03T23:45:43.747Z,101117.88
2023-01-03T23:50:45.439Z,101115.16
2023-01-03T23:55:47.226Z,101104.06
